createdAt,value
2017-01-26T00:00:10.279Z,95.48
2017-01-26T00:00:38.255Z,95.48
2017-01-26T00:01:06.447Z,95.68
2017-01-26T00:01:34.623Z,95.39
2017-01-26T00:02:02.828Z,95.68
2017-01-26T00:02:30.976Z,95.29
2017-01-26T00:02:59.000Z,95.58
2017-01-26T00:03:27.273Z,95.58
2017-01-26T00:04:38.582Z,95.87
2017-01-26T00:05:06.761Z,95.68
2017-01-26T00:05:34.961Z,95.78
2017-01-26T00:06:02.903Z,95.48
2017-01-26T00:06:31.063Z,95.97
2017-01-26T00:06:59.072Z,96.16
2017-01-26T00:07:27.343Z,95.97
2017-01-26T00:07:55.546Z,95.97
2017-01-26T00:08:23.597Z,95.48
2017-01-26T00:08:51.616Z,96.16
2017-01-26T00:09:19.625Z,96.26
2017-01-26T00:10:30.842Z,95.58
2017-01-26T00:10:59.020Z,95.78
2017-01-26T00:11:27.309Z,96.06
2017-01-26T00:11:55.342Z,95.68
2017-01-26T00:12:23.506Z,96.16
2017-01-26T00:12:51.702Z,95.48
2017-01-26T00:13:19.693Z,95.78
2017-01-26T00:13:47.904Z,96.02
2017-01-26T00:14:15.773Z,96.6
2017-01-26T00:14:43.889Z,96.12
2017-01-26T00:15:12.065Z,96.7
2017-01-26T00:16:23.198Z,96.31
2017-01-26T00:16:51.379Z,96.6
2017-01-26T00:17:19.483Z,96.5
2017-01-26T00:17:47.617Z,96.02
2017-01-26T00:18:15.785Z,96.31
2017-01-26T00:18:43.792Z,96.16
2017-01-26T00:19:11.883Z,96.21
2017-01-26T00:19:39.992Z,96.31
2017-01-26T00:20:08.128Z,96.5
2017-01-26T00:20:35.964Z,96.41
2017-01-26T00:21:04.229Z,96.12
2017-01-26T00:22:15.348Z,96.6
2017-01-26T00:22:43.625Z,96.12
2017-01-26T00:23:11.728Z,96.7
2017-01-26T00:23:39.757Z,96.98
2017-01-26T00:24:07.922Z,97.18
2017-01-26T00:24:36.118Z,96.8
2017-01-26T00:25:04.199Z,96.89
2017-01-26T00:25:32.404Z,96.98
2017-01-26T00:26:00.641Z,96.98
2017-01-26T00:26:28.759Z,97.18
2017-01-26T00:26:56.959Z,96.6
2017-01-26T00:28:08.151Z,96.98
2017-01-26T00:28:36.330Z,96.7
2017-01-26T00:29:04.527Z,96.89
2017-01-26T00:29:32.559Z,96.7
2017-01-26T00:30:00.720Z,96.89
2017-01-26T00:30:28.728Z,96.7
2017-01-26T00:30:57.003Z,97.08
2017-01-26T00:31:25.099Z,96.8
2017-01-26T00:31:53.143Z,96.98
2017-01-26T00:32:21.264Z,97.57
2017-01-26T00:32:49.532Z,96.89
2017-01-26T00:34:00.709Z,96.8
2017-01-26T00:34:28.890Z,96.98
2017-01-26T00:34:57.183Z,97.18
2017-01-26T00:35:25.409Z,97.28
2017-01-26T00:35:53.588Z,97.18
2017-01-26T00:36:21.706Z,97.57
2017-01-26T00:36:49.885Z,97.67
2017-01-26T00:37:18.019Z,97.18
2017-01-26T00:37:46.180Z,97.47
2017-01-26T00:38:14.397Z,97.76
2017-01-26T00:38:42.663Z,97.18
2017-01-26T00:39:53.999Z,97.47
2017-01-26T00:40:22.302Z,97.86
2017-01-26T00:40:50.499Z,98.05
2017-01-26T00:41:18.628Z,97.67
2017-01-26T00:41:46.801Z,97.86
2017-01-26T00:42:14.716Z,97.76
2017-01-26T00:42:42.994Z,97.96
2017-01-26T00:43:11.016Z,97.67
2017-01-26T00:43:39.158Z,97.86
2017-01-26T00:44:07.277Z,97.96
2017-01-26T00:44:35.545Z,97.38
2017-01-26T00:45:46.763Z,97.86
2017-01-26T00:46:15.040Z,98.15
2017-01-26T00:46:43.332Z,98.25
2017-01-26T00:47:11.268Z,97.47
2017-01-26T00:47:39.337Z,97.38
2017-01-26T00:48:07.531Z,97.67
2017-01-26T00:48:35.709Z,97.86
2017-01-26T00:49:03.629Z,97.38
2017-01-26T00:49:31.774Z,97.38
2017-01-26T00:49:59.707Z,97.57
2017-01-26T00:50:27.791Z,97.38
2017-01-26T00:51:39.011Z,97.76
2017-01-26T00:52:07.102Z,97.76
2017-01-26T00:52:35.112Z,97.47
2017-01-26T00:53:03.057Z,97.96
2017-01-26T00:53:31.128Z,97.57
2017-01-26T00:53:59.041Z,97.38
2017-01-26T00:54:27.222Z,97.47
2017-01-26T00:54:55.427Z,97.47
2017-01-26T00:55:23.559Z,97.42
2017-01-26T00:55:51.483Z,97.38
2017-01-26T00:56:19.657Z,97.38
2017-01-26T00:57:30.875Z,97.67
2017-01-26T00:57:58.970Z,97.23
2017-01-26T00:58:27.159Z,97.38
2017-01-26T00:58:55.291Z,97.38
2017-01-26T00:59:23.363Z,97.28
2017-01-26T00:59:51.462Z,97.08
2017-01-26T01:00:19.639Z,97.67
2017-01-26T01:00:47.875Z,97.67
2017-01-26T01:01:15.990Z,97.76
2017-01-26T01:01:43.841Z,97.57
2017-01-26T01:02:12.012Z,98.2
2017-01-26T01:03:23.325Z,97.38
2017-01-26T01:03:51.498Z,97.81
2017-01-26T01:04:19.786Z,97.76
2017-01-26T01:04:47.726Z,97.18
2017-01-26T01:05:15.970Z,97.52
2017-01-26T01:05:44.155Z,97.23
2017-01-26T01:06:12.467Z,97.33
2017-01-26T01:06:40.576Z,96.65
2017-01-26T01:07:08.959Z,96.75
2017-01-26T01:07:37.155Z,96.55
2017-01-26T01:08:05.407Z,96.75
2017-01-26T01:09:16.700Z,96.75
2017-01-26T01:09:44.880Z,96.07
2017-01-26T01:10:13.282Z,96.26
2017-01-26T01:10:41.540Z,96.94
2017-01-26T01:11:09.798Z,96.94
2017-01-26T01:11:37.972Z,96.65
2017-01-26T01:12:06.146Z,96.55
2017-01-26T01:12:34.356Z,96.55
2017-01-26T01:13:03.045Z,96.94
2017-01-26T01:13:31.156Z,96.84
2017-01-26T01:13:59.412Z,97.03
2017-01-26T01:15:10.824Z,97.23
2017-01-26T01:15:39.004Z,97.62
2017-01-26T01:16:07.424Z,97.62
2017-01-26T01:16:35.496Z,97.42
2017-01-26T01:17:03.766Z,97.33
2017-01-26T01:17:31.843Z,97.38
2017-01-26T01:18:00.104Z,97.62
2017-01-26T01:18:28.294Z,97.62
2017-01-26T01:18:56.596Z,97.71
2017-01-26T01:19:24.797Z,97.81
2017-01-26T01:19:53.057Z,97.81
2017-01-26T01:21:04.266Z,97.52
2017-01-26T01:21:32.543Z,98
2017-01-26T01:22:00.959Z,97.91
2017-01-26T01:22:29.131Z,97.81
2017-01-26T01:22:57.286Z,97.52
2017-01-26T01:23:25.469Z,97.81
2017-01-26T01:23:53.727Z,97.71
2017-01-26T01:24:22.022Z,97.71
2017-01-26T01:24:50.336Z,97.91
2017-01-26T01:25:18.544Z,97.62
2017-01-26T01:25:47.282Z,97.71
2017-01-26T01:26:58.484Z,97.62
2017-01-26T01:27:26.662Z,97.33
2017-01-26T01:27:55.070Z,97.71
2017-01-26T01:28:23.146Z,97.62
2017-01-26T01:28:51.489Z,98.1
2017-01-26T01:29:19.667Z,98.39
2017-01-26T01:29:47.829Z,98
2017-01-26T01:30:16.052Z,97.81
2017-01-26T01:30:44.368Z,98
2017-01-26T01:31:12.466Z,97.71
2017-01-26T01:31:40.816Z,98
2017-01-26T01:32:52.013Z,98.2
2017-01-26T01:33:20.283Z,98
2017-01-26T01:33:48.589Z,97.91
2017-01-26T01:34:16.847Z,98.2
2017-01-26T01:34:44.907Z,97.71
2017-01-26T01:35:13.068Z,97.62
2017-01-26T01:35:41.404Z,98
2017-01-26T01:36:09.524Z,97.23
2017-01-26T01:36:37.908Z,98
2017-01-26T01:37:05.999Z,98
2017-01-26T01:37:34.337Z,97.62
2017-01-26T01:38:45.622Z,97.91
2017-01-26T01:39:13.897Z,97.71
2017-01-26T01:39:42.121Z,97.81
2017-01-26T01:40:10.282Z,97.62
2017-01-26T01:40:38.438Z,97.13
2017-01-26T01:41:06.513Z,98
2017-01-26T01:41:34.757Z,97.81
2017-01-26T01:42:02.858Z,97.42
2017-01-26T01:42:31.040Z,97.81
2017-01-26T01:42:59.121Z,97.81
2017-01-26T01:43:27.460Z,97.62
2017-01-26T01:44:38.850Z,97.33
2017-01-26T01:45:07.124Z,97.42
2017-01-26T01:45:35.422Z,97.42
2017-01-26T01:46:03.486Z,97.71
2017-01-26T01:46:31.516Z,97.33
2017-01-26T01:46:59.668Z,97.33
2017-01-26T01:47:27.569Z,97.71
2017-01-26T01:47:55.769Z,98.3
2017-01-26T01:48:23.906Z,97.91
2017-01-26T01:48:51.928Z,97.62
2017-01-26T01:49:20.105Z,97.62
2017-01-26T01:50:31.234Z,98
2017-01-26T01:50:59.509Z,98.49
2017-01-26T01:51:27.790Z,98.49
2017-01-26T01:51:56.009Z,98.58
2017-01-26T01:52:24.171Z,98.39
2017-01-26T01:52:52.272Z,98.39
2017-01-26T01:53:20.381Z,98.58
2017-01-26T01:53:48.670Z,98.58
2017-01-26T01:54:16.907Z,98.49
2017-01-26T01:54:45.028Z,98.49
2017-01-26T01:55:13.207Z,98.2
2017-01-26T01:56:24.519Z,98.58
2017-01-26T01:56:52.789Z,98.1
2017-01-26T01:57:21.076Z,98.1
2017-01-26T01:57:49.114Z,98.49
2017-01-26T01:58:17.277Z,98.2
2017-01-26T01:58:45.470Z,97.52
2017-01-26T01:59:13.646Z,97.42
2017-01-26T01:59:41.840Z,97.71
2017-01-26T02:00:09.987Z,97.52
2017-01-26T02:00:38.107Z,97.57
2017-01-26T02:01:06.314Z,97.08
2017-01-26T02:02:17.599Z,97.08
2017-01-26T02:02:45.685Z,97.57
2017-01-26T02:03:13.878Z,97.67
2017-01-26T02:03:42.008Z,97.76
2017-01-26T02:04:10.261Z,98.05
2017-01-26T02:04:38.458Z,97.91
2017-01-26T02:05:06.729Z,97.96
2017-01-26T02:05:34.767Z,97.86
2017-01-26T02:06:02.881Z,97.76
2017-01-26T02:06:31.096Z,97.67
2017-01-26T02:06:59.364Z,97.67
2017-01-26T02:08:10.488Z,97.76
2017-01-26T02:08:38.672Z,97.76
2017-01-26T02:09:06.869Z,97.86
2017-01-26T02:09:34.902Z,97.38
2017-01-26T02:10:02.977Z,97.76
2017-01-26T02:10:31.078Z,97.57
2017-01-26T02:10:59.073Z,97.76
2017-01-26T02:11:26.986Z,97.67
2017-01-26T02:11:55.037Z,97.38
2017-01-26T02:12:23.063Z,97.76
2017-01-26T02:12:51.140Z,97.57
2017-01-26T02:14:02.447Z,98.05
2017-01-26T02:14:30.630Z,97.96
2017-01-26T02:14:58.822Z,97.67
2017-01-26T02:15:26.577Z,97.67
2017-01-26T02:15:54.767Z,97.38
2017-01-26T02:16:22.867Z,97.57
2017-01-26T02:16:51.044Z,97.57
2017-01-26T02:17:19.158Z,97.38
2017-01-26T02:17:47.402Z,97.28
2017-01-26T02:18:15.614Z,97.57
2017-01-26T02:18:43.879Z,97.86
2017-01-26T02:19:55.102Z,97.67
2017-01-26T02:20:23.191Z,97.67
2017-01-26T02:20:51.379Z,97.28
2017-01-26T02:21:19.419Z,97.28
2017-01-26T02:21:47.590Z,97.08
2017-01-26T02:22:15.600Z,97.28
2017-01-26T02:22:43.870Z,97.38
2017-01-26T02:23:11.977Z,97.38
2017-01-26T02:23:39.936Z,97.76
2017-01-26T02:24:08.151Z,97.76
2017-01-26T02:24:36.324Z,97.67
2017-01-26T02:25:47.540Z,97.76
2017-01-26T02:26:15.625Z,97.57
2017-01-26T02:26:43.818Z,98.05
2017-01-26T02:27:11.943Z,97.96
2017-01-26T02:27:40.017Z,97.57
2017-01-26T02:28:08.115Z,97.28
2017-01-26T02:28:36.390Z,97.57
2017-01-26T02:29:04.686Z,97.67
2017-01-26T02:29:32.737Z,97.47
2017-01-26T02:30:00.664Z,97.76
2017-01-26T02:30:28.866Z,97.96
2017-01-26T02:31:40.164Z,97.86
2017-01-26T02:32:08.248Z,97.57
2017-01-26T02:32:36.443Z,97.38
2017-01-26T02:33:04.578Z,97.38
2017-01-26T02:33:32.735Z,97.38
2017-01-26T02:34:00.923Z,97.42
2017-01-26T02:34:29.193Z,97.57
2017-01-26T02:34:57.302Z,97.33
2017-01-26T02:35:25.344Z,97.86
2017-01-26T02:35:53.463Z,97.96
2017-01-26T02:36:21.545Z,98.15
2017-01-26T02:37:32.860Z,97.76
2017-01-26T02:38:01.135Z,97.52
2017-01-26T02:38:29.141Z,97.76
2017-01-26T02:38:57.270Z,98.3
2017-01-26T02:39:25.438Z,98
2017-01-26T02:39:53.544Z,98.39
2017-01-26T02:40:21.727Z,98.3
2017-01-26T02:40:50.010Z,98.49
2017-01-26T02:41:18.237Z,98.39
2017-01-26T02:41:46.165Z,98.78
2017-01-26T02:42:14.335Z,98.58
2017-01-26T02:43:25.559Z,98.58
2017-01-26T02:43:53.837Z,98.78
2017-01-26T02:44:22.125Z,98.49
2017-01-26T02:44:50.067Z,98.58
2017-01-26T02:45:18.139Z,98.39
2017-01-26T02:45:46.136Z,98.39
2017-01-26T02:46:14.313Z,98.97
2017-01-26T02:46:42.412Z,98.49
2017-01-26T02:47:10.368Z,98.58
2017-01-26T02:47:38.388Z,98.3
2017-01-26T02:48:06.566Z,98.3
2017-01-26T02:49:17.779Z,98.88
2017-01-26T02:49:45.961Z,98.78
2017-01-26T02:50:14.160Z,98.78
2017-01-26T02:50:42.087Z,98.78
2017-01-26T02:51:10.343Z,98.97
2017-01-26T02:51:38.446Z,98.58
2017-01-26T02:52:06.620Z,98.88
2017-01-26T02:52:34.625Z,99.07
2017-01-26T02:53:02.757Z,98.97
2017-01-26T02:53:30.779Z,99.36
2017-01-26T02:53:58.955Z,98.97
2017-01-26T02:55:10.077Z,98.97
2017-01-26T02:55:38.163Z,99.74
2017-01-26T02:56:06.265Z,99.16
2017-01-26T02:56:34.301Z,99.84
2017-01-26T02:57:02.553Z,99.07
2017-01-26T02:57:30.467Z,98.97
2017-01-26T02:57:58.735Z,99.74
2017-01-26T02:58:27.021Z,99.07
2017-01-26T02:58:55.156Z,99.16
2017-01-26T02:59:23.369Z,99.07
2017-01-26T02:59:51.542Z,99.55
2017-01-26T03:01:02.676Z,99.36
2017-01-26T03:01:30.760Z,99.46
2017-01-26T03:01:58.859Z,99.46
2017-01-26T03:02:26.983Z,99.36
2017-01-26T03:02:55.241Z,99.46
2017-01-26T03:03:23.342Z,99.55
2017-01-26T03:03:51.521Z,99.26
2017-01-26T03:04:19.808Z,99.65
2017-01-26T03:04:48.038Z,99.46
2017-01-26T03:05:15.877Z,99.46
2017-01-26T03:05:43.955Z,99.26
2017-01-26T03:06:55.078Z,99.84
2017-01-26T03:07:23.077Z,99.94
2017-01-26T03:07:51.269Z,99.99
2017-01-26T03:08:19.491Z,99.99
2017-01-26T03:08:47.652Z,99.99
2017-01-26T03:09:15.758Z,99.74
2017-01-26T03:09:44.374Z,99.74
2017-01-26T03:10:12.562Z,99.74
2017-01-26T03:10:40.601Z,99.94
2017-01-26T03:11:08.619Z,99.84
2017-01-26T03:11:36.890Z,99.84
2017-01-26T03:12:48.200Z,99.74
2017-01-26T03:13:16.381Z,99.99
2017-01-26T03:13:44.576Z,99.99
2017-01-26T03:14:12.611Z,99.99
2017-01-26T03:14:40.592Z,99.84
2017-01-26T03:15:08.693Z,99.74
2017-01-26T03:15:36.963Z,99.99
2017-01-26T03:16:05.160Z,99.94
2017-01-26T03:16:33.106Z,99.99
2017-01-26T03:17:01.222Z,99.99
2017-01-26T03:17:29.303Z,99.99
2017-01-26T03:18:40.527Z,99.99
2017-01-26T03:19:08.807Z,99.99
2017-01-26T03:19:37.002Z,99.99
2017-01-26T03:20:05.219Z,99.99
2017-01-26T03:20:33.471Z,99.99
2017-01-26T03:21:01.386Z,99.99
2017-01-26T03:21:29.468Z,99.99
2017-01-26T03:21:57.749Z,99.99
2017-01-26T03:22:25.889Z,99.99
2017-01-26T03:22:54.101Z,99.99
2017-01-26T03:23:22.366Z,99.99
2017-01-26T03:24:33.580Z,99.99
2017-01-26T03:25:01.856Z,99.99
2017-01-26T03:25:30.143Z,99.99
2017-01-26T03:25:58.173Z,99.99
2017-01-26T03:26:26.436Z,99.99
2017-01-26T03:26:54.437Z,99.99
2017-01-26T03:27:22.612Z,99.99
2017-01-26T03:27:50.708Z,99.99
2017-01-26T03:28:18.836Z,99.99
2017-01-26T03:28:46.863Z,99.99
2017-01-26T03:29:14.941Z,99.99
2017-01-26T03:30:26.163Z,99.99
2017-01-26T03:30:54.344Z,99.99
2017-01-26T03:31:22.447Z,99.99
2017-01-26T03:31:50.572Z,99.99
2017-01-26T03:32:18.832Z,99.99
2017-01-26T03:32:46.935Z,99.99
2017-01-26T03:33:15.210Z,99.99
2017-01-26T03:33:43.502Z,99.99
2017-01-26T03:34:11.638Z,99.99
2017-01-26T03:34:39.749Z,99.99
2017-01-26T03:35:08.014Z,99.99
2017-01-26T03:36:19.325Z,99.99
2017-01-26T03:36:47.225Z,99.99
2017-01-26T03:37:15.512Z,99.99
2017-01-26T03:37:43.637Z,99.99
2017-01-26T03:38:11.704Z,99.99
2017-01-26T03:38:39.798Z,99.99
2017-01-26T03:39:08.066Z,99.99
2017-01-26T03:39:36.351Z,99.99
2017-01-26T03:40:04.572Z,99.99
2017-01-26T03:40:32.602Z,99.99
2017-01-26T03:41:00.689Z,99.99
2017-01-26T03:42:12.018Z,99.99
2017-01-26T03:42:40.177Z,99.99
2017-01-26T03:43:08.466Z,99.99
2017-01-26T03:43:36.516Z,99.99
2017-01-26T03:44:04.398Z,99.99
2017-01-26T03:44:32.587Z,99.99
2017-01-26T03:45:00.764Z,99.99
2017-01-26T03:45:29.049Z,99.99
2017-01-26T03:45:57.090Z,99.99
2017-01-26T03:46:25.206Z,99.99
2017-01-26T03:46:53.376Z,99.99
2017-01-26T03:48:04.595Z,99.99
2017-01-26T03:48:32.591Z,99.99
2017-01-26T03:49:00.599Z,99.99
2017-01-26T03:49:28.819Z,99.99
2017-01-26T03:49:56.983Z,99.99
2017-01-26T03:50:24.989Z,99.99
2017-01-26T03:50:53.166Z,99.99
2017-01-26T03:51:21.268Z,99.99
2017-01-26T03:51:49.317Z,99.99
2017-01-26T03:52:17.242Z,99.99
2017-01-26T03:52:45.418Z,99.99
2017-01-26T03:53:56.639Z,99.99
2017-01-26T03:54:24.628Z,99.99
2017-01-26T03:54:52.821Z,99.99
2017-01-26T03:55:20.943Z,99.99
2017-01-26T03:55:49.010Z,99.99
2017-01-26T03:56:17.015Z,99.99
2017-01-26T03:56:45.095Z,99.99
2017-01-26T03:57:13.196Z,99.99
2017-01-26T03:57:41.325Z,99.99
2017-01-26T03:58:09.535Z,99.99
2017-01-26T03:58:37.710Z,99.99
2017-01-26T03:59:48.932Z,99.99
2017-01-26T04:00:17.013Z,99.99
2017-01-26T04:00:45.302Z,99.99
2017-01-26T04:01:13.340Z,99.99
2017-01-26T04:01:41.504Z,99.99
2017-01-26T04:02:09.504Z,99.99
2017-01-26T04:02:37.774Z,99.99
2017-01-26T04:03:05.872Z,99.99
2017-01-26T04:03:34.003Z,99.99
2017-01-26T04:04:02.122Z,99.99
2017-01-26T04:04:30.206Z,99.99
2017-01-26T04:05:41.423Z,99.99
2017-01-26T04:06:09.508Z,99.99
2017-01-26T04:06:37.795Z,99.99
2017-01-26T04:07:05.923Z,99.99
2017-01-26T04:07:33.993Z,99.99
2017-01-26T04:08:02.097Z,99.99
2017-01-26T04:08:30.270Z,99.99
2017-01-26T04:08:58.554Z,99.99
2017-01-26T04:09:26.504Z,99.99
2017-01-26T04:09:54.717Z,99.99
2017-01-26T04:10:22.982Z,99.99
2017-01-26T04:11:34.199Z,99.99
2017-01-26T04:12:02.379Z,99.99
2017-01-26T04:12:30.606Z,99.99
2017-01-26T04:12:58.699Z,99.99
2017-01-26T04:13:26.764Z,99.99
2017-01-26T04:13:54.862Z,99.99
2017-01-26T04:14:23.132Z,99.99
2017-01-26T04:14:51.417Z,99.99
2017-01-26T04:15:19.638Z,99.99
2017-01-26T04:15:47.667Z,99.99
2017-01-26T04:16:15.661Z,99.99
2017-01-26T04:17:27.000Z,99.99
2017-01-26T04:17:55.154Z,99.99
2017-01-26T04:18:23.444Z,99.99
2017-01-26T04:18:51.563Z,99.99
2017-01-26T04:19:19.622Z,99.99
2017-01-26T04:19:47.719Z,99.99
2017-01-26T04:20:15.989Z,99.99
2017-01-26T04:20:44.188Z,99.99
2017-01-26T04:21:12.138Z,99.99
2017-01-26T04:21:40.160Z,99.99
2017-01-26T04:22:08.244Z,99.99
2017-01-26T04:23:19.371Z,99.99
2017-01-26T04:23:47.644Z,99.99
2017-01-26T04:24:15.928Z,99.99
2017-01-26T04:24:44.150Z,99.99
2017-01-26T04:25:12.316Z,99.99
2017-01-26T04:25:40.501Z,99.99
2017-01-26T04:26:08.681Z,99.99
2017-01-26T04:26:36.876Z,99.99
2017-01-26T04:27:05.012Z,99.99
2017-01-26T04:27:33.127Z,99.99
2017-01-26T04:28:01.298Z,99.99
2017-01-26T04:29:12.614Z,99.99
2017-01-26T04:29:40.700Z,99.99
2017-01-26T04:30:08.989Z,99.99
2017-01-26T04:30:37.112Z,99.99
2017-01-26T04:31:05.372Z,99.99
2017-01-26T04:31:33.567Z,99.99
2017-01-26T04:32:01.649Z,99.99
2017-01-26T04:32:29.836Z,99.99
2017-01-26T04:32:57.975Z,99.99
2017-01-26T04:33:26.094Z,99.99
2017-01-26T04:33:54.362Z,99.99
2017-01-26T04:35:05.578Z,99.99
2017-01-26T04:35:33.761Z,99.99
2017-01-26T04:36:01.954Z,99.99
2017-01-26T04:36:30.178Z,99.99
2017-01-26T04:36:58.341Z,99.99
2017-01-26T04:37:26.440Z,99.99
2017-01-26T04:37:54.618Z,99.99
2017-01-26T04:38:22.715Z,99.99
2017-01-26T04:38:50.853Z,99.99
2017-01-26T04:39:18.969Z,99.99
2017-01-26T04:39:47.142Z,99.99
2017-01-26T04:40:58.264Z,99.99
2017-01-26T04:41:26.445Z,99.99
2017-01-26T04:41:54.732Z,99.99
2017-01-26T04:42:22.954Z,99.99
2017-01-26T04:42:51.027Z,99.99
2017-01-26T04:43:19.128Z,99.99
2017-01-26T04:43:47.307Z,99.99
2017-01-26T04:44:15.609Z,99.99
2017-01-26T04:44:43.623Z,99.99
2017-01-26T04:45:11.645Z,99.99
2017-01-26T04:45:39.836Z,99.99
2017-01-26T04:46:51.038Z,99.99
2017-01-26T04:47:19.314Z,99.99
2017-01-26T04:47:47.414Z,99.99
2017-01-26T04:48:15.643Z,99.99
2017-01-26T04:48:43.894Z,99.99
2017-01-26T04:49:11.994Z,99.99
2017-01-26T04:49:40.265Z,99.99
2017-01-26T04:50:08.363Z,99.99
2017-01-26T04:50:36.317Z,99.99
2017-01-26T04:51:04.342Z,99.99
2017-01-26T04:51:32.611Z,99.99
2017-01-26T04:52:43.828Z,99.99
2017-01-26T04:53:11.912Z,99.99
2017-01-26T04:53:40.016Z,99.99
2017-01-26T04:54:08.145Z,99.99
2017-01-26T04:54:36.222Z,99.99
2017-01-26T04:55:04.417Z,99.99
2017-01-26T04:55:32.500Z,99.99
2017-01-26T04:56:00.690Z,99.99
2017-01-26T04:56:28.821Z,99.99
2017-01-26T04:56:57.033Z,99.99
2017-01-26T04:57:25.301Z,99.99
2017-01-26T04:58:36.425Z,99.99
2017-01-26T04:59:04.604Z,99.99
2017-01-26T04:59:32.889Z,99.99
2017-01-26T05:00:00.924Z,99.99
2017-01-26T05:00:29.184Z,99.99
2017-01-26T05:00:57.282Z,99.99
2017-01-26T05:01:25.461Z,99.99
2017-01-26T05:01:53.651Z,99.99
2017-01-26T05:02:21.785Z,99.99
2017-01-26T05:02:49.889Z,99.99
2017-01-26T05:03:18.128Z,99.99
2017-01-26T05:04:29.371Z,99.99
2017-01-26T05:04:57.460Z,99.99
2017-01-26T05:05:25.685Z,99.99
2017-01-26T05:05:53.817Z,99.99
2017-01-26T05:06:21.984Z,99.99
2017-01-26T05:06:50.130Z,99.99
2017-01-26T05:07:18.435Z,99.99
2017-01-26T05:07:46.752Z,99.99
2017-01-26T05:08:14.928Z,99.99
2017-01-26T05:08:43.059Z,99.99
2017-01-26T05:09:11.203Z,99.99
2017-01-26T05:10:22.436Z,99.99
2017-01-26T05:10:50.631Z,99.99
2017-01-26T05:11:18.669Z,99.99
2017-01-26T05:11:46.986Z,99.99
2017-01-26T05:12:15.248Z,99.99
2017-01-26T05:12:43.396Z,99.99
2017-01-26T05:13:11.704Z,99.99
2017-01-26T05:13:39.887Z,99.99
2017-01-26T05:14:08.068Z,99.99
2017-01-26T05:14:36.378Z,99.99
2017-01-26T05:15:04.711Z,99.99
2017-01-26T05:16:15.758Z,99.99
2017-01-26T05:16:43.856Z,99.99
2017-01-26T05:17:12.177Z,99.99
2017-01-26T05:17:40.303Z,99.99
2017-01-26T05:18:08.379Z,99.99
2017-01-26T05:18:36.524Z,99.99
2017-01-26T05:19:04.746Z,99.99
2017-01-26T05:19:32.970Z,99.99
2017-01-26T05:20:01.241Z,99.99
2017-01-26T05:20:29.374Z,99.99
2017-01-26T05:20:57.708Z,99.99
2017-01-26T05:22:08.856Z,99.99
2017-01-26T05:22:36.857Z,99.99
2017-01-26T05:23:05.084Z,99.99
2017-01-26T05:23:33.313Z,99.99
2017-01-26T05:24:01.477Z,99.99
2017-01-26T05:24:29.969Z,99.99
2017-01-26T05:24:58.188Z,99.99
2017-01-26T05:25:26.320Z,99.99
2017-01-26T05:25:54.309Z,99.99
2017-01-26T05:26:22.435Z,99.99
2017-01-26T05:26:50.768Z,99.99
2017-01-26T05:28:02.096Z,99.99
2017-01-26T05:28:30.285Z,99.99
2017-01-26T05:28:58.620Z,99.99
2017-01-26T05:29:26.843Z,99.99
2017-01-26T05:29:55.008Z,99.99
2017-01-26T05:30:23.061Z,99.99
2017-01-26T05:30:51.280Z,99.99
2017-01-26T05:31:19.505Z,99.99
2017-01-26T05:31:47.681Z,99.99
2017-01-26T05:32:15.901Z,99.99
2017-01-26T05:32:44.239Z,99.99
2017-01-26T05:33:55.573Z,99.99
2017-01-26T05:34:23.674Z,99.99
2017-01-26T05:34:51.807Z,99.99
2017-01-26T05:35:19.930Z,99.99
2017-01-26T05:35:48.184Z,99.99
2017-01-26T05:36:16.233Z,99.99
2017-01-26T05:36:44.360Z,99.99
2017-01-26T05:37:12.392Z,99.99
2017-01-26T05:37:40.382Z,99.99
2017-01-26T05:38:08.622Z,99.99
2017-01-26T05:38:36.606Z,99.99
2017-01-26T05:39:47.937Z,99.99
2017-01-26T05:40:16.129Z,99.99
2017-01-26T05:40:44.292Z,99.99
2017-01-26T05:41:12.518Z,99.99
2017-01-26T05:41:40.594Z,99.99
2017-01-26T05:42:08.833Z,99.99
2017-01-26T05:42:37.143Z,99.99
2017-01-26T05:43:05.371Z,99.99
2017-01-26T05:43:33.636Z,99.99
2017-01-26T05:44:01.759Z,99.99
2017-01-26T05:44:29.808Z,99.99
2017-01-26T05:45:41.140Z,99.99
2017-01-26T05:46:09.243Z,99.99
2017-01-26T05:46:37.473Z,99.99
2017-01-26T05:47:05.695Z,99.99
2017-01-26T05:47:33.859Z,99.99
2017-01-26T05:48:02.102Z,99.99
2017-01-26T05:48:30.318Z,99.99
2017-01-26T05:48:58.448Z,99.99
2017-01-26T05:49:26.633Z,99.99
2017-01-26T05:49:54.765Z,99.99
2017-01-26T05:50:22.912Z,99.99
2017-01-26T05:51:34.238Z,99.99
2017-01-26T05:52:02.428Z,99.99
2017-01-26T05:52:30.565Z,99.99
2017-01-26T05:52:58.787Z,99.99
2017-01-26T05:53:26.950Z,99.99
2017-01-26T05:53:55.186Z,99.99
2017-01-26T05:54:23.122Z,99.99
2017-01-26T05:54:51.440Z,99.99
2017-01-26T05:55:19.712Z,99.99
2017-01-26T05:55:47.935Z,99.99
2017-01-26T05:56:16.175Z,99.99
2017-01-26T05:57:27.324Z,99.99
2017-01-26T05:57:55.425Z,99.99
2017-01-26T05:58:23.744Z,99.99
2017-01-26T05:58:51.965Z,99.99
2017-01-26T05:59:20.129Z,99.99
2017-01-26T05:59:48.279Z,99.99
2017-01-26T06:00:16.595Z,99.99
2017-01-26T06:00:44.820Z,99.99
2017-01-26T06:01:13.085Z,99.99
2017-01-26T06:01:41.027Z,99.99
2017-01-26T06:02:09.095Z,99.99
2017-01-26T06:03:20.339Z,99.99
2017-01-26T06:03:48.621Z,99.99
2017-01-26T06:04:16.847Z,99.99
2017-01-26T06:04:45.156Z,99.99
2017-01-26T06:05:13.321Z,99.99
2017-01-26T06:05:41.372Z,99.99
2017-01-26T06:06:09.680Z,99.99
2017-01-26T06:06:37.997Z,99.99
2017-01-26T06:07:05.892Z,99.99
2017-01-26T06:07:34.021Z,99.99
2017-01-26T06:08:02.074Z,99.99
2017-01-26T06:09:13.307Z,99.99
2017-01-26T06:09:41.399Z,99.99
2017-01-26T06:10:09.538Z,99.99
2017-01-26T06:10:37.760Z,99.99
2017-01-26T06:11:05.922Z,99.99
2017-01-26T06:11:34.065Z,99.99
2017-01-26T06:12:02.372Z,99.99
2017-01-26T06:12:30.502Z,99.99
2017-01-26T06:12:58.771Z,99.99
2017-01-26T06:13:26.998Z,99.99
2017-01-26T06:13:55.324Z,99.99
2017-01-26T06:15:06.661Z,99.99
2017-01-26T06:15:34.758Z,99.99
2017-01-26T06:16:02.985Z,99.99
2017-01-26T06:16:31.298Z,99.99
2017-01-26T06:16:59.276Z,99.99
2017-01-26T06:17:27.324Z,99.99
2017-01-26T06:17:55.349Z,99.99
2017-01-26T06:18:23.581Z,99.99
2017-01-26T06:18:51.850Z,99.99
2017-01-26T06:19:20.078Z,99.99
2017-01-26T06:19:48.408Z,99.99
2017-01-26T06:20:59.644Z,99.99
2017-01-26T06:21:27.841Z,99.99
2017-01-26T06:21:55.975Z,99.99
2017-01-26T06:22:24.289Z,99.99
2017-01-26T06:22:52.458Z,99.99
2017-01-26T06:23:20.608Z,99.99
2017-01-26T06:23:48.822Z,99.99
2017-01-26T06:24:17.046Z,99.99
2017-01-26T06:24:45.038Z,99.99
2017-01-26T06:25:13.167Z,99.99
2017-01-26T06:25:41.412Z,99.99
2017-01-26T06:26:52.647Z,99.99
2017-01-26T06:27:20.934Z,99.99
2017-01-26T06:27:49.064Z,99.99
2017-01-26T06:28:17.189Z,99.99
2017-01-26T06:28:45.442Z,99.99
2017-01-26T06:29:13.497Z,99.99
2017-01-26T06:29:41.711Z,99.99
2017-01-26T06:30:09.846Z,99.99
2017-01-26T06:30:37.931Z,99.99
2017-01-26T06:31:06.059Z,99.99
2017-01-26T06:31:34.301Z,99.99
2017-01-26T06:32:45.534Z,99.99
2017-01-26T06:33:13.818Z,99.99
2017-01-26T06:33:42.052Z,99.99
2017-01-26T06:34:10.362Z,99.99
2017-01-26T06:34:38.526Z,99.99
2017-01-26T06:35:06.691Z,99.99
2017-01-26T06:35:34.885Z,99.99
2017-01-26T06:36:03.202Z,99.99
2017-01-26T06:36:31.473Z,99.99
2017-01-26T06:36:59.603Z,99.99
2017-01-26T06:37:27.750Z,99.99
2017-01-26T06:38:39.080Z,99.99
2017-01-26T06:39:07.180Z,99.99
2017-01-26T06:39:35.409Z,99.99
2017-01-26T06:40:03.720Z,99.99
2017-01-26T06:40:31.800Z,99.99
2017-01-26T06:41:00.041Z,99.99
2017-01-26T06:41:28.352Z,99.99
2017-01-26T06:41:56.389Z,99.99
2017-01-26T06:42:24.565Z,99.99
2017-01-26T06:42:52.688Z,99.99
2017-01-26T06:43:21.019Z,99.99
2017-01-26T06:44:32.245Z,99.99
2017-01-26T06:45:00.153Z,99.99
2017-01-26T06:45:28.472Z,99.99
2017-01-26T06:45:56.695Z,99.99
2017-01-26T06:46:24.861Z,99.99
2017-01-26T06:46:52.903Z,99.99
2017-01-26T06:47:21.211Z,99.99
2017-01-26T06:47:49.435Z,99.99
2017-01-26T06:48:17.525Z,99.99
2017-01-26T06:48:45.559Z,99.99
2017-01-26T06:49:13.883Z,99.99
2017-01-26T06:50:25.118Z,99.99
2017-01-26T06:50:53.401Z,99.99
2017-01-26T06:51:21.630Z,99.99
2017-01-26T06:51:49.662Z,99.99
2017-01-26T06:52:17.830Z,99.99
2017-01-26T06:52:46.070Z,99.99
2017-01-26T06:53:14.283Z,99.99
2017-01-26T06:53:42.412Z,99.99